createdAt,value
2023-05-16T00:02:10.736Z,12.20
2023-05-16T00:04:38.138Z,12.20
2023-05-16T00:07:05.274Z,12.10
2023-05-16T00:09:38.041Z,12.10
2023-05-16T00:12:07.663Z,12.10
2023-05-16T00:14:37.435Z,12.10
2023-05-16T00:17:11.606Z,12.00
2023-05-16T00:19:42.340Z,12.10
2023-05-16T00:22:09.327Z,12.10
2023-05-16T00:24:38.425Z,12.10
2023-05-16T00:27:11.000Z,12.10
2023-05-16T00:29:38.201Z,12.10
2023-05-16T00:32:08.808Z,12.20
2023-05-16T00:34:36.271Z,12.20
2023-05-16T00:37:03.416Z,12.20
2023-05-16T00:39:30.968Z,12.20
2023-05-16T00:41:59.123Z,12.20
2023-05-16T00:44:27.194Z,12.20
2023-05-16T00:46:54.743Z,12.20
2023-05-16T00:49:22.289Z,12.20
2023-05-16T00:51:49.387Z,12.20
2023-05-16T00:54:16.495Z,12.20
2023-05-16T00:56:43.531Z,12.20
2023-05-16T00:59:11.117Z,12.20
2023-05-16T01:01:41.164Z,12.20
2023-05-16T01:04:08.561Z,12.20
2023-05-16T01:06:36.540Z,12.10
2023-05-16T01:09:04.043Z,12.10
2023-05-16T01:11:56.549Z,12.10
2023-05-16T01:14:42.604Z,12.10
2023-05-16T01:17:33.400Z,12.10
2023-05-16T01:20:24.677Z,12.10
2023-05-16T01:23:19.638Z,12.10
2023-05-16T01:26:39.267Z,12.10
2023-05-16T01:29:07.697Z,12.20
2023-05-16T01:31:35.232Z,12.20
2023-05-16T01:34:04.303Z,12.10
2023-05-16T01:36:39.950Z,12.10
2023-05-16T01:39:20.878Z,12.10
2023-05-16T01:42:08.749Z,12.10
2023-05-16T01:44:54.507Z,12.00
2023-05-16T01:47:25.865Z,11.90
2023-05-16T01:50:08.549Z,11.80
2023-05-16T01:53:01.020Z,11.80
2023-05-16T01:55:47.121Z,11.70
2023-05-16T01:58:19.330Z,11.60
2023-05-16T02:00:46.460Z,11.60
2023-05-16T02:03:19.492Z,11.60
2023-05-16T02:05:46.685Z,11.60
2023-05-16T02:08:14.365Z,11.60
2023-05-16T02:10:41.492Z,11.50
2023-05-16T02:13:08.589Z,11.50
2023-05-16T02:15:35.521Z,11.50
2023-05-16T02:18:02.428Z,11.40
2023-05-16T02:20:30.481Z,11.40
2023-05-16T02:22:57.706Z,11.40
2023-05-16T02:25:25.107Z,11.30
2023-05-16T02:27:52.570Z,11.30
2023-05-16T02:30:19.813Z,11.20
2023-05-16T02:32:46.923Z,11.20
2023-05-16T02:35:13.952Z,11.20
2023-05-16T02:37:41.473Z,11.20
2023-05-16T02:40:09.399Z,11.20
2023-05-16T02:42:36.322Z,11.10
2023-05-16T02:45:03.609Z,11.10
2023-05-16T02:47:32.499Z,11.10
2023-05-16T02:49:59.853Z,11.00
2023-05-16T02:52:26.774Z,11.00
2023-05-16T02:57:25.467Z,11.00
2023-05-16T02:59:53.439Z,10.90
2023-05-16T03:02:20.382Z,10.90
2023-05-16T03:04:47.459Z,10.90
2023-05-16T03:07:14.290Z,11.00
2023-05-16T03:09:41.945Z,11.00
2023-05-16T03:12:08.965Z,10.90
2023-05-16T03:14:39.092Z,11.00
2023-05-16T03:17:09.245Z,11.00
2023-05-16T03:19:36.484Z,11.00
2023-05-16T03:22:04.106Z,11.00
2023-05-16T03:24:33.011Z,11.00
2023-05-16T03:27:00.220Z,11.00
2023-05-16T03:29:27.422Z,11.00
2023-05-16T03:31:55.254Z,11.00
2023-05-16T03:34:24.672Z,11.10
2023-05-16T03:36:53.055Z,11.10
2023-05-16T03:39:20.399Z,11.10
2023-05-16T03:41:48.217Z,11.10
2023-05-16T03:44:15.095Z,11.20
2023-05-16T03:46:41.969Z,11.20
2023-05-16T03:49:09.070Z,11.20
2023-05-16T03:51:36.084Z,11.20
2023-05-16T03:54:06.219Z,11.30
2023-05-16T03:56:33.269Z,11.30
2023-05-16T03:59:00.153Z,11.40
2023-05-16T04:01:27.605Z,11.40
2023-05-16T04:03:57.619Z,11.50
2023-05-16T04:06:24.640Z,11.50
2023-05-16T04:08:51.514Z,11.50
2023-05-16T04:11:19.604Z,11.60
2023-05-16T04:13:46.445Z,11.70
2023-05-16T04:16:13.373Z,11.70
2023-05-16T04:18:41.885Z,11.80
2023-05-16T04:21:10.973Z,11.80
2023-05-16T04:23:37.827Z,11.90
2023-05-16T04:26:05.008Z,11.90
2023-05-16T04:28:32.522Z,12.00
2023-05-16T04:30:59.630Z,12.00
2023-05-16T04:33:26.692Z,12.10
2023-05-16T04:35:54.842Z,12.10
2023-05-16T04:38:22.615Z,12.20
2023-05-16T04:40:53.397Z,12.30
2023-05-16T04:43:21.453Z,12.30
2023-05-16T04:45:48.894Z,12.40
2023-05-16T04:48:18.446Z,12.50
2023-05-16T04:50:45.576Z,12.50
2023-05-16T04:53:12.472Z,12.60
2023-05-16T04:55:39.853Z,12.70
2023-05-16T04:58:08.301Z,12.70
2023-05-16T05:00:35.866Z,12.70
2023-05-16T05:03:04.639Z,12.80
2023-05-16T05:05:32.341Z,12.90
2023-05-16T05:08:01.093Z,12.90
2023-05-16T05:10:28.605Z,12.90
2023-05-16T05:12:56.516Z,13.00
2023-05-16T05:15:23.433Z,13.10
2023-05-16T05:17:50.645Z,13.10
2023-05-16T05:20:19.099Z,13.20
2023-05-16T05:22:46.020Z,13.30
2023-05-16T05:25:14.325Z,13.40
2023-05-16T05:27:41.440Z,13.50
2023-05-16T05:30:08.831Z,13.60
2023-05-16T05:32:39.735Z,13.60
2023-05-16T05:35:07.301Z,13.70
2023-05-16T05:37:34.234Z,13.80
2023-05-16T05:40:01.441Z,13.90
2023-05-16T05:42:28.311Z,14.00
2023-05-16T05:44:55.331Z,14.00
2023-05-16T05:47:22.439Z,14.10
2023-05-16T05:49:50.460Z,14.10
2023-05-16T05:52:17.618Z,14.20
2023-05-16T05:54:44.726Z,14.20
2023-05-16T05:57:11.715Z,14.30
2023-05-16T05:59:38.518Z,14.30
2023-05-16T06:02:05.944Z,14.30
2023-05-16T06:04:33.034Z,14.20
2023-05-16T06:06:59.825Z,14.20
2023-05-16T06:09:26.667Z,14.30
2023-05-16T06:11:53.514Z,14.30
2023-05-16T06:14:20.502Z,14.30
2023-05-16T06:16:47.320Z,14.30
2023-05-16T06:19:16.358Z,14.20
2023-05-16T06:21:44.009Z,14.20
2023-05-16T06:24:12.290Z,14.10
2023-05-16T06:26:39.252Z,14.20
2023-05-16T06:29:06.252Z,14.20
2023-05-16T06:31:33.124Z,14.20
2023-05-16T06:33:59.955Z,14.20
2023-05-16T06:36:26.850Z,14.10
2023-05-16T06:38:53.817Z,14.10
2023-05-16T06:41:21.555Z,14.10
2023-05-16T06:43:48.463Z,14.10
2023-05-16T06:46:15.360Z,14.00
2023-05-16T06:48:42.270Z,13.90
2023-05-16T06:51:10.394Z,13.90
2023-05-16T06:53:37.286Z,13.90
2023-05-16T06:56:04.369Z,14.00
2023-05-16T06:58:31.597Z,13.90
2023-05-16T07:00:58.554Z,14.00
2023-05-16T07:03:26.753Z,14.00
2023-05-16T07:05:54.099Z,14.00
2023-05-16T07:08:21.534Z,14.10
2023-05-16T07:10:48.375Z,14.20
2023-05-16T07:13:15.428Z,14.20
2023-05-16T07:15:42.255Z,14.20
2023-05-16T07:18:09.525Z,14.30
2023-05-16T07:20:36.620Z,14.30
2023-05-16T07:23:03.539Z,14.40
2023-05-16T07:25:30.609Z,14.40
2023-05-16T07:27:57.553Z,14.30
2023-05-16T07:30:24.745Z,14.30
2023-05-16T07:32:51.768Z,14.30
2023-05-16T07:35:19.175Z,14.30
2023-05-16T07:37:46.264Z,14.40
2023-05-16T07:40:13.855Z,14.50
2023-05-16T07:42:40.934Z,14.70
2023-05-16T07:45:08.421Z,14.80
2023-05-16T07:47:35.663Z,14.90
2023-05-16T07:50:03.083Z,15.10
2023-05-16T07:52:29.945Z,15.20
2023-05-16T07:54:56.982Z,15.40
2023-05-16T07:57:25.196Z,15.60
2023-05-16T07:59:53.638Z,15.80
2023-05-16T08:02:20.949Z,16.00
2023-05-16T08:04:48.981Z,16.00
2023-05-16T08:07:15.995Z,16.10
2023-05-16T08:09:42.923Z,16.10
2023-05-16T08:12:10.034Z,16.10
2023-05-16T08:14:37.151Z,16.00
2023-05-16T08:17:04.640Z,16.00
2023-05-16T08:19:33.028Z,16.00
2023-05-16T08:21:59.942Z,16.10
2023-05-16T08:24:26.811Z,16.20
2023-05-16T08:26:53.794Z,16.30
2023-05-16T08:29:21.091Z,16.40
2023-05-16T08:31:48.469Z,16.50
2023-05-16T08:34:16.039Z,16.40
2023-05-16T08:36:43.029Z,16.40
2023-05-16T08:39:11.695Z,16.30
2023-05-16T08:41:39.257Z,16.20
2023-05-16T08:44:06.795Z,16.10
2023-05-16T08:46:35.900Z,16.00
2023-05-16T08:49:08.012Z,16.10
2023-05-16T08:51:37.362Z,16.20
2023-05-16T08:54:06.886Z,16.20
2023-05-16T08:56:36.069Z,16.20
2023-05-16T08:59:04.421Z,16.30
2023-05-16T09:01:34.614Z,16.40
2023-05-16T09:04:03.949Z,16.50
2023-05-16T09:06:31.110Z,16.60
2023-05-16T09:08:58.083Z,16.70
2023-05-16T09:11:24.926Z,16.70
2023-05-16T09:13:54.511Z,16.60
2023-05-16T09:16:21.854Z,16.60
2023-05-16T09:18:57.829Z,16.70
2023-05-16T09:21:33.089Z,16.70
2023-05-16T09:24:07.364Z,16.90
2023-05-16T09:26:36.575Z,17.10
2023-05-16T09:29:11.830Z,17.30
2023-05-16T09:31:38.857Z,17.50
2023-05-16T09:34:11.311Z,17.50
2023-05-16T09:36:38.649Z,17.50
2023-05-16T09:39:08.829Z,17.40
2023-05-16T09:41:36.572Z,17.30
2023-05-16T09:44:06.893Z,17.30
2023-05-16T09:46:38.483Z,17.30
2023-05-16T09:49:05.460Z,17.40
2023-05-16T09:51:32.454Z,17.40
2023-05-16T09:54:00.076Z,17.40
2023-05-16T09:56:27.010Z,17.50
2023-05-16T09:58:54.156Z,17.50
2023-05-16T10:01:21.055Z,17.60
2023-05-16T10:03:48.494Z,17.60
2023-05-16T10:06:17.022Z,17.70
2023-05-16T10:08:44.400Z,17.70
2023-05-16T10:11:12.210Z,17.70
2023-05-16T10:13:39.916Z,17.70
2023-05-16T10:16:14.235Z,17.70
2023-05-16T10:18:42.500Z,17.60
2023-05-16T10:21:14.663Z,17.70
2023-05-16T10:23:48.963Z,17.80
2023-05-16T10:26:17.941Z,18.00
2023-05-16T10:28:45.568Z,18.20
2023-05-16T10:31:13.375Z,18.40
2023-05-16T10:33:41.375Z,18.60
2023-05-16T10:36:09.959Z,18.70
2023-05-16T10:38:38.166Z,18.80
2023-05-16T10:41:07.171Z,18.80
2023-05-16T10:43:34.069Z,18.90
2023-05-16T10:46:07.327Z,18.90
2023-05-16T10:48:36.681Z,19.10
2023-05-16T10:51:05.685Z,19.20
2023-05-16T10:53:34.694Z,19.40
2023-05-16T10:56:01.652Z,19.40
2023-05-16T10:58:32.362Z,19.40
2023-05-16T11:01:19.664Z,19.30
2023-05-16T11:04:08.194Z,19.30
2023-05-16T11:06:40.872Z,19.30
2023-05-16T11:09:16.385Z,19.20
2023-05-16T11:11:44.862Z,19.20
2023-05-16T11:14:27.175Z,19.20
2023-05-16T11:17:02.667Z,19.20
2023-05-16T11:19:41.808Z,19.20
2023-05-16T11:22:23.318Z,19.10
2023-05-16T11:25:07.749Z,19.10
2023-05-16T11:27:41.863Z,19.20
2023-05-16T11:30:13.281Z,19.20
2023-05-16T11:32:42.481Z,19.30
2023-05-16T11:35:15.438Z,19.40
2023-05-16T11:37:43.824Z,19.40
2023-05-16T11:40:12.577Z,19.60
2023-05-16T11:42:45.022Z,19.60
2023-05-16T11:45:15.906Z,19.70
2023-05-16T11:47:50.613Z,19.80
2023-05-16T11:50:19.845Z,19.80
2023-05-16T11:52:56.330Z,19.90
2023-05-16T11:55:40.329Z,20.20
2023-05-16T11:58:10.269Z,20.70
2023-05-16T12:00:37.189Z,21.70
2023-05-16T12:03:05.906Z,22.20
2023-05-16T12:05:35.106Z,22.40
2023-05-16T12:08:05.916Z,22.50
2023-05-16T12:10:36.127Z,22.30
2023-05-16T12:13:03.832Z,22.00
2023-05-16T12:15:31.336Z,21.60
2023-05-16T12:17:58.775Z,21.20
2023-05-16T12:20:26.317Z,20.70
2023-05-16T12:22:53.487Z,20.40
2023-05-16T12:25:24.533Z,20.10
2023-05-16T12:27:54.252Z,20.00
2023-05-16T12:30:26.003Z,20.10
2023-05-16T12:33:03.458Z,20.60
2023-05-16T12:35:33.565Z,20.80
2023-05-16T12:38:04.152Z,21.30
2023-05-16T12:40:32.298Z,21.50
2023-05-16T12:42:59.218Z,21.40
2023-05-16T12:45:29.500Z,21.50
2023-05-16T12:47:56.686Z,21.70
2023-05-16T12:50:26.815Z,22.10
2023-05-16T12:53:00.206Z,22.50
2023-05-16T12:55:27.082Z,22.70
2023-05-16T12:57:57.009Z,22.80
2023-05-16T13:00:24.450Z,22.50
2023-05-16T13:02:52.420Z,22.10
2023-05-16T13:05:20.672Z,21.90
2023-05-16T13:07:47.704Z,21.70
2023-05-16T13:10:14.647Z,21.50
2023-05-16T13:12:42.018Z,21.40
2023-05-16T13:15:11.819Z,21.60
2023-05-16T13:17:40.166Z,21.80
2023-05-16T13:20:27.663Z,21.90
2023-05-16T13:22:55.886Z,22.10
2023-05-16T13:25:22.824Z,22.50
2023-05-16T13:27:49.751Z,22.60
2023-05-16T13:30:16.677Z,22.80
2023-05-16T13:32:43.832Z,23.10
2023-05-16T13:35:10.970Z,22.90
2023-05-16T13:37:38.059Z,22.80
2023-05-16T13:40:05.845Z,22.80
2023-05-16T13:42:33.066Z,23.10
2023-05-16T13:45:00.131Z,23.30
2023-05-16T13:47:27.076Z,23.40
2023-05-16T13:49:53.994Z,23.30
2023-05-16T13:52:21.209Z,23.00
2023-05-16T13:54:48.212Z,22.50
2023-05-16T13:57:15.104Z,22.00
2023-05-16T14:02:12.949Z,21.60
2023-05-16T14:04:41.040Z,21.60
2023-05-16T14:07:08.440Z,21.70
2023-05-16T14:09:39.169Z,21.80
2023-05-16T14:12:07.501Z,21.90
2023-05-16T14:14:38.762Z,21.90
2023-05-16T14:17:05.711Z,21.70
2023-05-16T14:19:32.909Z,21.50
2023-05-16T14:21:59.908Z,21.50
2023-05-16T14:24:26.782Z,21.60
2023-05-16T14:26:58.520Z,21.60
2023-05-16T14:29:25.797Z,21.70
2023-05-16T14:31:53.443Z,21.60
2023-05-16T14:34:22.513Z,21.60
2023-05-16T14:36:50.083Z,21.50
2023-05-16T14:39:17.636Z,21.40
2023-05-16T14:41:44.669Z,21.40
2023-05-16T14:44:13.722Z,21.50
2023-05-16T14:46:40.726Z,21.50
2023-05-16T14:49:09.122Z,21.40
2023-05-16T14:51:36.516Z,21.40
2023-05-16T14:54:04.163Z,21.20
2023-05-16T14:56:32.151Z,21.10
2023-05-16T14:59:00.393Z,21.00
2023-05-16T15:01:27.539Z,21.00
2023-05-16T15:03:56.361Z,20.90
2023-05-16T15:06:24.938Z,20.80
2023-05-16T15:08:52.098Z,20.90
2023-05-16T15:11:19.376Z,21.10
2023-05-16T15:13:46.381Z,21.20
2023-05-16T15:16:13.372Z,21.40
2023-05-16T15:18:41.813Z,21.60
2023-05-16T15:21:09.331Z,21.80
2023-05-16T15:23:37.748Z,21.90
2023-05-16T15:26:07.574Z,21.90
2023-05-16T15:28:34.481Z,21.90
2023-05-16T15:31:01.389Z,22.00
2023-05-16T15:33:28.254Z,22.20
2023-05-16T15:35:58.099Z,22.50
2023-05-16T15:38:25.100Z,22.70
2023-05-16T15:41:01.560Z,22.90
2023-05-16T15:43:39.399Z,23.10
2023-05-16T15:46:08.154Z,23.30
2023-05-16T15:48:35.320Z,23.10
2023-05-16T15:51:02.221Z,23.10
2023-05-16T15:53:29.157Z,23.10
2023-05-16T15:55:56.590Z,23.10
2023-05-16T15:58:23.517Z,23.00
2023-05-16T16:00:50.675Z,23.00
2023-05-16T16:03:17.655Z,22.90
2023-05-16T16:05:44.750Z,22.90
2023-05-16T16:08:11.699Z,22.70
2023-05-16T16:10:38.585Z,22.40
2023-05-16T16:13:05.823Z,21.90
2023-05-16T16:15:34.065Z,21.60
2023-05-16T16:18:01.263Z,21.40
2023-05-16T16:20:28.635Z,21.20
2023-05-16T16:22:55.887Z,21.00
2023-05-16T16:25:23.530Z,20.90
2023-05-16T16:27:51.626Z,20.90
2023-05-16T16:30:18.846Z,20.90
2023-05-16T16:32:48.583Z,20.90
2023-05-16T16:35:15.886Z,21.00
2023-05-16T16:37:46.618Z,20.90
2023-05-16T16:40:21.720Z,20.90
2023-05-16T16:42:48.896Z,20.80
2023-05-16T16:45:15.848Z,20.80
2023-05-16T16:47:43.092Z,20.80
2023-05-16T16:50:11.041Z,20.80
2023-05-16T16:52:38.086Z,20.90
2023-05-16T16:55:06.125Z,21.00
2023-05-16T16:57:33.186Z,21.00
2023-05-16T17:00:00.390Z,21.00
2023-05-16T17:02:27.902Z,20.90
2023-05-16T17:04:54.944Z,20.80
2023-05-16T17:07:21.833Z,20.80
2023-05-16T17:09:48.864Z,20.70
2023-05-16T17:12:19.139Z,20.60
2023-05-16T17:14:47.922Z,20.50
2023-05-16T17:17:18.743Z,20.40
2023-05-16T17:19:47.036Z,20.30
2023-05-16T17:22:14.628Z,20.20
2023-05-16T17:24:41.561Z,20.20
2023-05-16T17:27:08.809Z,20.10
2023-05-16T17:29:36.143Z,20.00
2023-05-16T17:32:03.108Z,20.00
2023-05-16T17:34:30.081Z,19.90
2023-05-16T17:36:57.052Z,19.80
2023-05-16T17:39:24.743Z,19.70
2023-05-16T17:41:54.272Z,19.70
2023-05-16T17:44:21.555Z,19.60
2023-05-16T17:46:48.513Z,19.50
2023-05-16T17:49:15.483Z,19.40
2023-05-16T17:51:54.312Z,19.30
2023-05-16T17:54:22.123Z,19.20
2023-05-16T17:56:50.959Z,19.20
2023-05-16T17:59:18.161Z,19.10
2023-05-16T18:01:45.395Z,19.10
2023-05-16T18:04:13.310Z,19.00
2023-05-16T18:06:41.178Z,18.90
2023-05-16T18:09:10.059Z,18.80
2023-05-16T18:11:40.681Z,18.80
2023-05-16T18:14:13.096Z,18.70
2023-05-16T18:16:40.106Z,18.70
2023-05-16T18:19:08.795Z,18.60
2023-05-16T18:21:37.525Z,18.50
2023-05-16T18:24:05.332Z,18.50
2023-05-16T18:26:32.374Z,18.40
2023-05-16T18:28:59.550Z,18.40
2023-05-16T18:31:26.768Z,18.30
2023-05-16T18:33:54.835Z,18.30
2023-05-16T18:36:21.967Z,18.20
2023-05-16T18:38:49.072Z,18.10
2023-05-16T18:41:16.800Z,18.10
2023-05-16T18:43:44.373Z,18.00
2023-05-16T18:46:11.419Z,18.00
2023-05-16T18:48:38.650Z,17.90
2023-05-16T18:51:05.820Z,17.90
2023-05-16T18:53:32.736Z,17.80
2023-05-16T18:55:59.782Z,17.80
2023-05-16T18:58:26.880Z,17.70
2023-05-16T19:00:53.978Z,17.70
2023-05-16T19:03:21.197Z,17.70
2023-05-16T19:05:48.459Z,17.70
2023-05-16T19:08:15.888Z,17.70
2023-05-16T19:10:43.228Z,17.60
2023-05-16T19:13:10.439Z,17.60
2023-05-16T19:15:37.965Z,17.60
2023-05-16T19:18:06.620Z,17.50
2023-05-16T19:20:35.061Z,17.50
2023-05-16T19:23:03.584Z,17.50
2023-05-16T19:25:30.619Z,17.50
2023-05-16T19:27:57.596Z,17.40
2023-05-16T19:30:25.106Z,17.40
2023-05-16T19:32:52.200Z,17.40
2023-05-16T19:35:19.685Z,17.40
2023-05-16T19:37:46.760Z,17.30
2023-05-16T19:40:16.931Z,17.30
2023-05-16T19:42:44.469Z,17.30
2023-05-16T19:45:11.802Z,17.20
2023-05-16T19:47:39.102Z,17.10
2023-05-16T19:50:06.994Z,17.10
2023-05-16T19:52:34.797Z,17.00
2023-05-16T19:55:02.271Z,17.00
2023-05-16T19:57:29.391Z,17.00
2023-05-16T19:59:57.398Z,17.00
2023-05-16T20:02:24.844Z,16.90
2023-05-16T20:04:52.044Z,16.90
2023-05-16T20:07:19.226Z,17.00
2023-05-16T20:09:46.348Z,16.90
2023-05-16T20:12:16.261Z,16.90
2023-05-16T20:14:43.458Z,17.00
2023-05-16T20:17:10.395Z,16.90
2023-05-16T20:19:37.674Z,17.00
2023-05-16T20:22:05.757Z,16.90
2023-05-16T20:24:32.885Z,16.90
2023-05-16T20:27:02.142Z,16.80
2023-05-16T20:29:31.129Z,16.80
2023-05-16T20:31:58.128Z,16.70
2023-05-16T20:34:25.160Z,16.70
2023-05-16T20:36:51.994Z,16.60
2023-05-16T20:39:18.936Z,16.60
2023-05-16T20:41:46.175Z,16.60
2023-05-16T20:44:13.238Z,16.60
2023-05-16T20:46:42.512Z,16.60
2023-05-16T20:49:09.457Z,16.60
2023-05-16T20:51:36.703Z,16.60
2023-05-16T20:54:03.797Z,16.60
2023-05-16T20:56:30.898Z,16.60
2023-05-16T20:58:58.031Z,16.60
2023-05-16T21:01:25.214Z,16.50
2023-05-16T21:03:52.327Z,16.60
2023-05-16T21:06:19.492Z,16.50
2023-05-16T21:08:46.637Z,16.50
2023-05-16T21:11:13.765Z,16.50
2023-05-16T21:13:40.657Z,16.40
2023-05-16T21:16:07.939Z,16.40
2023-05-16T21:18:34.962Z,16.40
2023-05-16T21:21:01.955Z,16.30
2023-05-16T21:23:28.796Z,16.30
2023-05-16T21:25:55.670Z,16.40
2023-05-16T21:28:22.842Z,16.30
2023-05-16T21:30:50.011Z,16.30
2023-05-16T21:33:17.356Z,16.30
2023-05-16T21:35:44.247Z,16.30
2023-05-16T21:38:11.103Z,16.20
2023-05-16T21:40:38.039Z,16.20
2023-05-16T21:43:05.362Z,16.20
2023-05-16T21:45:32.340Z,16.10
2023-05-16T21:47:59.686Z,16.10
2023-05-16T21:50:27.165Z,16.00
2023-05-16T21:52:54.361Z,15.90
2023-05-16T21:55:21.476Z,15.90
2023-05-16T21:57:48.705Z,15.90
2023-05-16T22:01:12.346Z,15.90
2023-05-16T22:03:40.486Z,15.90
2023-05-16T22:06:08.508Z,15.90
2023-05-16T22:08:35.750Z,15.90
2023-05-16T22:11:02.872Z,15.90
2023-05-16T22:13:29.934Z,15.90
2023-05-16T22:16:04.695Z,15.90
2023-05-16T22:18:33.575Z,15.90
2023-05-16T22:21:01.653Z,15.90
2023-05-16T22:23:28.816Z,15.90
2023-05-16T22:25:56.078Z,15.90
2023-05-16T22:28:23.084Z,15.90
2023-05-16T22:30:50.270Z,15.90
2023-05-16T22:33:17.555Z,15.90
2023-05-16T22:35:44.596Z,15.90
2023-05-16T22:38:11.870Z,15.90
2023-05-16T22:40:38.816Z,15.90
2023-05-16T22:43:06.024Z,15.90
2023-05-16T22:45:33.177Z,15.90
2023-05-16T22:48:00.095Z,15.90
2023-05-16T22:50:27.125Z,15.80
2023-05-16T22:52:54.266Z,15.80
2023-05-16T22:55:22.061Z,15.80
2023-05-16T22:57:49.186Z,15.70
2023-05-16T23:00:16.709Z,15.60
2023-05-16T23:02:44.080Z,15.50
2023-05-16T23:05:11.246Z,15.40
2023-05-16T23:07:38.383Z,15.30
2023-05-16T23:10:06.157Z,15.20
2023-05-16T23:12:32.983Z,15.00
2023-05-16T23:15:02.829Z,14.90
2023-05-16T23:17:30.820Z,14.80
2023-05-16T23:19:58.030Z,14.70
2023-05-16T23:22:25.118Z,14.60
2023-05-16T23:24:52.650Z,14.60
2023-05-16T23:27:19.687Z,14.50
2023-05-16T23:29:46.593Z,14.50
2023-05-16T23:32:14.303Z,14.40
2023-05-16T23:34:41.262Z,14.40
2023-05-16T23:37:08.343Z,14.40
2023-05-16T23:39:35.470Z,14.30
2023-05-16T23:42:02.650Z,14.30
2023-05-16T23:44:29.750Z,14.30
2023-05-16T23:46:56.954Z,14.20
2023-05-16T23:49:24.041Z,14.20
2023-05-16T23:54:21.108Z,14.20
2023-05-16T23:56:48.067Z,14.20
2023-05-16T23:59:16.403Z,14.10
